Pagrindinis puslapis
METAR-TAF:

METAR-TAF

Oro uostai :

Tiandzinas, Kinija

platuma: 39-11N, ilguma: 117-21E, Aukštis: 3 m

Dabartinis oras

Ataskaita buvo paskelbta 43 minutes, ne 08:30 UTC
Vėjas 16 kt iš Rytų
Temperatūra 6°C
Drėgmė 61%
Slėgis 1018 hPa
Matomumas: 6000 m

METAR: ZBTJ 240830Z 09008MPS 6000 NSC 06/M01 Q1018 NOSIG

Laikas: 17:13 (09:13 UTC)

Prognozė

Ataskaita buvo paskelbta 5 valandos ir 54 minutes, ne 03:19 UTC
Prognozė galioja nuo 24 metu 06 UTC su 25 metu 06 UTC
Vėjas 16 kt iš Rytų su gūsio iki 25 kt
Matomumas: 3000 m
migla
Tapsmas
nuo 24 metu 11 UTC su 24 metu 12 UTC
Vėjas 6 kt iš Rytų
lietus, rūkana
Tapsmas
nuo 24 metu 19 UTC su 24 metu 20 UTC
rūkana

TAF: ZBTJ 240319Z 2406/2506 10008G13MPS 3000 HZ NSC TX08/2407Z TN04/2422Z BECMG 2411/2412 10003MPS -RA BR BECMG 2419/2420 BR

Orai ataskaitas ir orų prognozės (METAR, TAF).

turimą stotys yra geltonos ir raudonos taškus žemėlapyje.

Perkelti pele per norėdami pamatyti stoties vardą.

Tada spustelėkite, norėdami matyti oro stebėjimo ir prognozės.

Norėdami pakeisti žemėlapį: spustelėkite ant žalios mygtukų su juodo kryžiaus žemyn,; žalią mygtuką su brūkšneliu, jei norite nutolinti; arba žalių rodyklių gretimoms žemėlapius.


METAR-TAF: